Time;durP1;ratioP1;P1;durP2;ratioP2;P2;SDS_P1;SDS_P2;PMS_P1;PMS_P2;Temp;Humidity;BMP_temperature;BMP_pressure;BME280_temperature;BME280_humidity;BME280_pressure;Samples;Min_cycle;Max_cycle;Signal;HPM_P1;HPM_P2
2021/12/14 00:02:08;;;;;;;14.53;12.80;;;;;;;;;;5040364;28;20234;-71
2021/12/14 00:04:37;;;;;;;14.20;12.70;;;;;;;;;;5041597;28;20305;-71
2021/12/14 00:07:06;;;;;;;14.43;12.50;;;;;;;;;;5042604;28;20238;-71
2021/12/14 00:09:36;;;;;;;16.37;12.93;;;;;;;;;;5039685;28;20736;-71
2021/12/14 00:12:20;;;;;;;16.93;13.67;;;;;;;;;;5041145;28;20244;-71
2021/12/14 00:15:04;;;;;;;17.00;12.33;;;;;;;;;;5041326;28;20760;-71
2021/12/14 00:17:35;;;;;;;15.40;12.70;;;;;;;;;;5042105;28;20349;-71
2021/12/14 00:20:08;;;;;;;14.57;11.77;;;;;;;;;;5040113;28;20734;-71
2021/12/14 00:24:05;;;;;;;13.87;12.40;;;;;;;;;;5041574;28;20759;-71
2021/12/14 00:25:24;;;;;;;17.03;14.17;;;;;;;;;;5041089;28;20322;-71
2021/12/14 00:27:53;;;;;;;15.20;13.50;;;;;;;;;;5040378;28;20643;-72
2021/12/14 00:30:20;;;;;;;15.93;14.10;;;;;;;;;;5039922;28;20215;-72
2021/12/14 00:32:47;;;;;;;15.43;13.30;;;;;;;;;;5041898;28;20288;-71
2021/12/14 00:35:14;;;;;;;16.67;14.10;;;;;;;;;;5040473;28;20211;-71
2021/12/14 00:37:46;;;;;;;16.77;14.97;;;;;;;;;;5039408;28;20252;-72
2021/12/14 00:40:17;;;;;;;17.80;13.73;;;;;;;;;;5040836;28;20328;-71
2021/12/14 00:42:44;;;;;;;18.57;14.27;;;;;;;;;;5041651;28;20215;-71
2021/12/14 00:45:13;;;;;;;17.23;14.37;;;;;;;;;;5040009;28;20229;-71
2021/12/14 00:47:40;;;;;;;16.73;14.07;;;;;;;;;;5040095;28;20241;-72
2021/12/14 00:50:09;;;;;;;16.40;13.27;;;;;;;;;;5041966;28;20231;-71
2021/12/14 00:52:35;;;;;;;16.63;13.00;;;;;;;;;;5040620;28;20258;-71
2021/12/14 00:55:04;;;;;;;18.57;14.80;;;;;;;;;;5040421;28;20905;-71
2021/12/14 00:57:31;;;;;;;19.30;15.27;;;;;;;;;;5041347;28;20211;-71
2021/12/14 00:59:57;;;;;;;18.43;15.17;;;;;;;;;;5040536;28;20252;-71
2021/12/14 01:02:26;;;;;;;14.63;11.83;;;;;;;;;;5039673;28;20273;-71
2021/12/14 01:04:55;;;;;;;18.30;15.70;;;;;;;;;;5041968;28;20286;-71
2021/12/14 01:07:24;;;;;;;18.53;15.17;;;;;;;;;;5041084;28;20215;-71
2021/12/14 01:09:56;;;;;;;19.53;15.50;;;;;;;;;;5039101;28;20236;-71
2021/12/14 01:12:33;;;;;;;17.60;15.73;;;;;;;;;;5040456;28;20723;-72
2021/12/14 01:15:24;;;;;;;19.60;16.13;;;;;;;;;;5041754;28;20286;-71
2021/12/14 01:18:02;;;;;;;20.50;16.47;;;;;;;;;;5040735;28;20205;-71
2021/12/14 01:20:37;;;;;;;20.43;16.57;;;;;;;;;;5039007;28;20333;-71
2021/12/14 01:23:14;;;;;;;20.37;16.67;;;;;;;;;;5040763;28;20582;-71
2021/12/14 01:25:42;;;;;;;20.20;16.50;;;;;;;;;;5040034;28;20274;-71
2021/12/14 01:28:12;;;;;;;20.17;17.13;;;;;;;;;;5038826;28;20292;-71
2021/12/14 01:30:50;;;;;;;19.30;16.67;;;;;;;;;;5039347;28;20217;-71
2021/12/14 01:33:19;;;;;;;19.00;16.07;;;;;;;;;;5041383;28;20216;-71
2021/12/14 01:35:49;;;;;;;23.43;17.93;;;;;;;;;;5039861;28;20250;-71
2021/12/14 01:38:21;;;;;;;21.27;16.77;;;;;;;;;;5039230;28;20297;-71
2021/12/14 01:40:57;;;;;;;20.57;16.40;;;;;;;;;;5040238;28;20792;-71
2021/12/14 01:43:29;;;;;;;21.13;17.93;;;;;;;;;;5041024;28;20678;-71
2021/12/14 01:45:58;;;;;;;20.73;17.60;;;;;;;;;;5038208;28;20223;-71
2021/12/14 01:48:26;;;;;;;20.93;16.20;;;;;;;;;;5039059;28;21031;-71
2021/12/14 01:50:57;;;;;;;21.17;17.97;;;;;;;;;;5041167;28;20212;-71
2021/12/14 01:53:25;;;;;;;22.73;18.13;;;;;;;;;;5039713;28;20222;-71
2021/12/14 01:55:55;;;;;;;23.00;18.20;;;;;;;;;;5039087;28;20232;-71
2021/12/14 01:58:24;;;;;;;21.27;17.70;;;;;;;;;;5040993;28;20751;-72
2021/12/14 02:00:54;;;;;;;21.30;18.00;;;;;;;;;;5039987;28;20236;-71
2021/12/14 02:03:28;;;;;;;23.50;18.70;;;;;;;;;;5037777;28;20230;-71
2021/12/14 02:05:56;;;;;;;21.77;18.40;;;;;;;;;;5039637;28;20243;-71
2021/12/14 02:08:25;;;;;;;23.77;18.63;;;;;;;;;;5041046;28;20685;-71
2021/12/14 02:10:53;;;;;;;21.27;18.43;;;;;;;;;;5038162;28;20282;-71
2021/12/14 02:13:25;;;;;;;22.13;19.63;;;;;;;;;;5039474;28;20276;-71
2021/12/14 02:15:52;;;;;;;23.10;19.53;;;;;;;;;;5040554;28;20230;-71
2021/12/14 02:18:22;;;;;;;23.63;19.87;;;;;;;;;;5039491;28;20217;-71
2021/12/14 02:20:53;;;;;;;22.43;18.03;;;;;;;;;;5039249;28;20299;-71
2021/12/14 02:23:21;;;;;;;24.50;19.27;;;;;;;;;;5039697;28;20214;-72
2021/12/14 02:25:47;;;;;;;25.57;20.27;;;;;;;;;;5038752;28;20249;-71
2021/12/14 02:28:17;;;;;;;22.97;19.13;;;;;;;;;;5038615;28;20220;-71
2021/12/14 02:30:46;;;;;;;24.83;19.97;;;;;;;;;;5040122;28;20230;-71
2021/12/14 02:33:16;;;;;;;25.27;20.00;;;;;;;;;;5039130;28;20674;-71
2021/12/14 02:35:42;;;;;;;23.83;19.70;;;;;;;;;;5038318;28;20622;-71
2021/12/14 02:38:12;;;;;;;25.43;20.43;;;;;;;;;;5042593;28;20867;-71
2021/12/14 02:40:57;;;;;;;24.80;19.97;;;;;;;;;;5043823;28;20230;-72
2021/12/14 02:43:28;;;;;;;22.83;18.37;;;;;;;;;;5042430;28;20724;-71
2021/12/14 02:46:03;;;;;;;25.27;20.40;;;;;;;;;;5042773;28;20227;-71
2021/12/14 02:48:30;;;;;;;22.07;17.70;;;;;;;;;;5044008;28;20329;-71
2021/12/14 02:50:57;;;;;;;24.37;19.97;;;;;;;;;;5043745;28;20212;-72
2021/12/14 02:53:24;;;;;;;23.60;20.60;;;;;;;;;;5042355;28;20225;-71
2021/12/14 02:55:51;;;;;;;26.60;22.07;;;;;;;;;;5043645;28;20281;-71
2021/12/14 02:58:17;;;;;;;24.17;20.40;;;;;;;;;;5043148;28;20277;-72
2021/12/14 03:00:49;;;;;;;26.17;21.60;;;;;;;;;;5041497;28;20282;-71
2021/12/14 03:03:20;;;;;;;24.17;19.40;;;;;;;;;;5043527;28;20211;-71
2021/12/14 03:05:49;;;;;;;24.60;21.50;;;;;;;;;;5042001;28;20231;-71
2021/12/14 03:08:20;;;;;;;24.90;20.90;;;;;;;;;;5041647;28;20518;-72
2021/12/14 03:10:56;;;;;;;23.10;20.20;;;;;;;;;;5042799;28;20223;-71
2021/12/14 03:13:25;;;;;;;25.27;21.40;;;;;;;;;;5043795;28;20268;-71
2021/12/14 03:15:54;;;;;;;25.50;19.83;;;;;;;;;;5042237;28;20229;-71
2021/12/14 03:18:24;;;;;;;26.40;21.17;;;;;;;;;;5041708;28;20254;-71
2021/12/14 03:20:53;;;;;;;24.37;20.70;;;;;;;;;;5042754;28;20620;-71
2021/12/14 03:23:23;;;;;;;25.47;21.70;;;;;;;;;;5041565;28;20211;-71
2021/12/14 03:25:54;;;;;;;25.73;21.70;;;;;;;;;;5041363;28;20636;-72
2021/12/14 03:28:23;;;;;;;28.07;23.17;;;;;;;;;;5042227;28;20230;-71
2021/12/14 03:31:01;;;;;;;28.60;22.83;;;;;;;;;;5042312;28;20277;-71
2021/12/14 03:33:33;;;;;;;25.93;21.23;;;;;;;;;;5041676;28;20745;-71
2021/12/14 03:36:02;;;;;;;26.83;21.67;;;;;;;;;;5041935;28;20207;-71
2021/12/14 03:38:35;;;;;;;25.50;22.03;;;;;;;;;;5043046;28;20281;-71
2021/12/14 03:41:07;;;;;;;27.43;22.77;;;;;;;;;;5040738;28;20227;-71
2021/12/14 03:43:35;;;;;;;25.43;22.60;;;;;;;;;;5041398;28;20219;-71
2021/12/14 03:46:02;;;;;;;26.80;22.20;;;;;;;;;;5043437;28;20630;-71
2021/12/14 03:48:33;;;;;;;26.90;22.90;;;;;;;;;;5040817;28;20289;-72
2021/12/14 03:51:01;;;;;;;26.70;22.00;;;;;;;;;;5040401;28;20265;-72
2021/12/14 03:53:27;;;;;;;27.43;24.43;;;;;;;;;;5043063;28;21128;-71
2021/12/14 03:55:57;;;;;;;29.43;23.27;;;;;;;;;;5042324;28;20716;-71
2021/12/14 03:58:30;;;;;;;25.70;22.37;;;;;;;;;;5041021;28;20220;-72
2021/12/14 04:00:59;;;;;;;31.20;23.37;;;;;;;;;;5041513;28;20232;-71
2021/12/14 04:03:28;;;;;;;25.37;21.20;;;;;;;;;;5042663;28;20284;-71
2021/12/14 04:05:55;;;;;;;27.50;23.77;;;;;;;;;;5040661;28;20238;-71
2021/12/14 04:08:23;;;;;;;26.40;23.27;;;;;;;;;;5042076;28;20674;-71
2021/12/14 04:10:51;;;;;;;27.90;24.23;;;;;;;;;;5041742;28;20236;-71
2021/12/14 04:13:20;;;;;;;29.40;24.70;;;;;;;;;;5039906;28;20220;-71
2021/12/14 04:15:48;;;;;;;27.50;22.30;;;;;;;;;;5040393;28;20224;-71
2021/12/14 04:18:15;;;;;;;27.63;23.60;;;;;;;;;;5042593;28;20659;-71
2021/12/14 04:20:44;;;;;;;30.33;25.30;;;;;;;;;;5039894;28;20217;-71
2021/12/14 04:23:14;;;;;;;29.93;25.80;;;;;;;;;;5041060;28;20699;-71
2021/12/14 04:25:42;;;;;;;29.37;24.30;;;;;;;;;;5041897;28;20234;-71
2021/12/14 04:28:14;;;;;;;27.73;24.43;;;;;;;;;;5040642;28;20273;-71
2021/12/14 04:30:42;;;;;;;34.17;27.13;;;;;;;;;;5039950;28;20219;-71
2021/12/14 04:33:13;;;;;;;31.43;27.40;;;;;;;;;;5041897;28;20268;-71
2021/12/14 04:35:42;;;;;;;33.63;27.23;;;;;;;;;;5041372;28;20208;-71
2021/12/14 04:38:15;;;;;;;31.53;27.37;;;;;;;;;;5039685;28;20207;-71
2021/12/14 04:51:58;;;;;;;35.07;28.23;;;;;;;;;;5040866;28;20658;-71
2021/12/14 04:54:26;;;;;;;36.13;28.07;;;;;;;;;;5041635;28;20733;-71
2021/12/14 04:56:52;;;;;;;33.40;27.23;;;;;;;;;;5040847;28;20206;-71
2021/12/14 04:59:23;;;;;;;34.53;27.47;;;;;;;;;;5039519;28;20214;-71
2021/12/14 05:01:51;;;;;;;35.07;29.73;;;;;;;;;;5040634;28;20232;-71
2021/12/14 05:04:24;;;;;;;34.03;27.90;;;;;;;;;;5040585;28;20674;-71
2021/12/14 05:06:56;;;;;;;33.53;27.97;;;;;;;;;;5039445;28;20242;-71
2021/12/14 05:09:27;;;;;;;37.57;29.63;;;;;;;;;;5040976;28;20288;-71
2021/12/14 05:11:58;;;;;;;36.10;28.90;;;;;;;;;;5040956;28;20208;-71
2021/12/14 05:14:27;;;;;;;35.97;30.07;;;;;;;;;;5039438;28;20215;-71
2021/12/14 05:16:55;;;;;;;35.87;29.63;;;;;;;;;;5039491;28;20219;-71
2021/12/14 05:19:25;;;;;;;37.47;30.73;;;;;;;;;;5041432;28;20261;-73
2021/12/14 05:21:53;;;;;;;36.10;28.80;;;;;;;;;;5040207;28;20852;-71
2021/12/14 05:24:23;;;;;;;35.37;29.50;;;;;;;;;;5038703;28;20211;-71
2021/12/14 05:26:56;;;;;;;37.53;30.50;;;;;;;;;;5041402;28;20702;-71
2021/12/14 05:29:24;;;;;;;36.20;29.20;;;;;;;;;;5040637;28;20257;-72
2021/12/14 05:31:52;;;;;;;39.53;31.80;;;;;;;;;;5039533;28;20230;-76
2021/12/14 05:34:22;;;;;;;35.60;30.07;;;;;;;;;;5040670;28;20208;-76
2021/12/14 05:36:51;;;;;;;36.10;29.67;;;;;;;;;;5042271;28;20258;-76
2021/12/14 05:39:30;;;;;;;36.10;30.30;;;;;;;;;;5039201;28;20235;-76
2021/12/14 05:44:46;;;;;;;35.60;30.60;;;;;;;;;;5040335;28;20222;-75
2021/12/14 05:47:16;;;;;;;36.70;28.97;;;;;;;;;;5040612;28;20234;-76
2021/12/14 05:49:45;;;;;;;40.10;32.13;;;;;;;;;;5039476;28;20235;-76
2021/12/14 05:52:15;;;;;;;39.07;30.80;;;;;;;;;;5039468;28;20211;-76
2021/12/14 05:54:42;;;;;;;38.43;29.97;;;;;;;;;;5040905;28;20226;-76
2021/12/14 05:57:15;;;;;;;38.17;30.57;;;;;;;;;;5038253;28;20214;-76
2021/12/14 05:59:42;;;;;;;38.10;31.13;;;;;;;;;;5039218;28;20214;-76
2021/12/14 06:02:09;;;;;;;37.60;30.50;;;;;;;;;;5040637;28;20720;-75
2021/12/14 06:04:38;;;;;;;38.30;30.87;;;;;;;;;;5039872;28;20225;-76
2021/12/14 06:07:09;;;;;;;39.60;32.53;;;;;;;;;;5038939;28;20232;-76
2021/12/14 06:09:40;;;;;;;37.87;31.10;;;;;;;;;;5040432;28;20241;-76
2021/12/14 06:12:12;;;;;;;37.80;30.60;;;;;;;;;;5039802;28;20216;-76
2021/12/14 06:14:43;;;;;;;39.47;31.47;;;;;;;;;;5038731;28;20316;-76
2021/12/14 06:17:11;;;;;;;35.30;30.20;;;;;;;;;;5039698;28;20702;-76
2021/12/14 06:19:40;;;;;;;37.00;30.40;;;;;;;;;;5040707;28;20682;-76
2021/12/14 06:22:10;;;;;;;38.90;30.50;;;;;;;;;;5039586;28;20741;-76
2021/12/14 06:24:41;;;;;;;38.97;32.47;;;;;;;;;;5038166;28;20651;-75
2021/12/14 06:27:11;;;;;;;40.00;31.07;;;;;;;;;;5040612;28;20227;-77
2021/12/14 06:29:40;;;;;;;40.30;31.23;;;;;;;;;;5040499;28;20262;-76
2021/12/14 06:32:10;;;;;;;37.37;30.77;;;;;;;;;;5038583;28;20296;-76
2021/12/14 06:34:42;;;;;;;38.03;30.47;;;;;;;;;;5040153;28;20617;-76
2021/12/14 06:38:06;;;;;;;38.03;31.00;;;;;;;;;;5040659;28;20207;-75
2021/12/14 06:40:37;;;;;;;39.03;30.67;;;;;;;;;;5039831;28;20234;-76
2021/12/14 06:43:08;;;;;;;37.53;29.93;;;;;;;;;;5039086;28;20207;-76
2021/12/14 06:45:37;;;;;;;39.20;31.03;;;;;;;;;;5039384;28;20227;-76
2021/12/14 06:48:07;;;;;;;39.27;32.10;;;;;;;;;;5040444;28;20257;-75
2021/12/14 06:50:39;;;;;;;38.27;30.70;;;;;;;;;;5038849;28;20215;-76
2021/12/14 06:53:08;;;;;;;38.33;30.23;;;;;;;;;;5037977;28;20220;-75
2021/12/14 06:55:37;;;;;;;39.30;30.57;;;;;;;;;;5040418;28;20745;-75
2021/12/14 06:58:09;;;;;;;34.80;28.67;;;;;;;;;;5040256;28;20207;-75
2021/12/14 07:00:39;;;;;;;38.60;30.50;;;;;;;;;;5038311;28;20206;-75
2021/12/14 07:03:06;;;;;;;35.83;30.33;;;;;;;;;;5038770;28;20211;-75
2021/12/14 07:05:33;;;;;;;36.90;28.97;;;;;;;;;;5038299;28;20293;-75
2021/12/14 07:08:07;;;;;;;40.23;30.27;;;;;;;;;;5037094;28;20784;-76
2021/12/14 07:10:36;;;;;;;35.37;27.17;;;;;;;;;;5038365;28;20216;-76
2021/12/14 07:13:10;;;;;;;35.47;28.67;;;;;;;;;;5035323;28;20216;-75
2021/12/14 07:15:37;;;;;;;34.77;29.73;;;;;;;;;;5037725;28;20222;-75
2021/12/14 07:18:05;;;;;;;34.87;27.70;;;;;;;;;;5038732;28;20221;-77
2021/12/14 07:20:34;;;;;;;34.87;27.73;;;;;;;;;;5036224;28;20984;-76
2021/12/14 07:23:04;;;;;;;34.50;26.67;;;;;;;;;;5038951;28;20632;-78
2021/12/14 07:25:33;;;;;;;35.07;28.97;;;;;;;;;;5039792;28;20746;-78
2021/12/14 07:28:06;;;;;;;33.27;26.47;;;;;;;;;;5041164;28;20277;-78
2021/12/14 07:30:36;;;;;;;32.17;26.43;;;;;;;;;;5040675;28;20204;-77
2021/12/14 07:33:10;;;;;;;34.80;28.70;;;;;;;;;;5039174;28;20220;-77
2021/12/14 07:35:41;;;;;;;34.23;27.30;;;;;;;;;;5041608;28;20207;-77
2021/12/14 07:38:34;;;;;;;33.97;26.73;;;;;;;;;;5039960;28;20215;-78
2021/12/14 07:41:06;;;;;;;33.27;28.17;;;;;;;;;;5039893;28;20234;-78
2021/12/14 07:43:37;;;;;;;34.40;27.37;;;;;;;;;;5037238;28;20594;-78
2021/12/14 07:46:15;;;;;;;35.50;28.67;;;;;;;;;;5039665;28;20288;-76
2021/12/14 07:48:46;;;;;;;34.23;27.83;;;;;;;;;;5038676;28;20762;-78
2021/12/14 07:51:13;;;;;;;33.40;25.43;;;;;;;;;;5038651;28;20253;-78
2021/12/14 07:53:43;;;;;;;34.97;27.60;;;;;;;;;;5037964;28;20257;-77
2021/12/14 07:56:21;;;;;;;34.30;26.67;;;;;;;;;;5039951;28;20222;-79
2021/12/14 07:58:49;;;;;;;34.90;28.07;;;;;;;;;;5040208;28;20277;-77
2021/12/14 08:01:16;;;;;;;32.07;26.67;;;;;;;;;;5038843;28;20235;-78
2021/12/14 08:03:42;;;;;;;32.23;25.37;;;;;;;;;;5040501;28;20260;-76
2021/12/14 08:06:12;;;;;;;32.03;27.10;;;;;;;;;;5036731;28;20297;-75
2021/12/14 08:08:44;;;;;;;30.57;26.47;;;;;;;;;;5040648;28;20203;-76
2021/12/14 08:11:30;;;;;;;31.37;25.73;;;;;;;;;;5038146;28;21080;-76
2021/12/14 08:14:00;;;;;;;32.63;26.90;;;;;;;;;;5039773;28;20247;-76
2021/12/14 08:16:38;;;;;;;32.03;26.80;;;;;;;;;;5038183;28;20769;-76
2021/12/14 08:19:04;;;;;;;32.80;27.67;;;;;;;;;;5038578;28;20626;-76
2021/12/14 08:21:31;;;;;;;30.33;26.00;;;;;;;;;;5038178;28;20682;-76
2021/12/14 08:24:02;;;;;;;27.67;23.70;;;;;;;;;;5037222;28;21164;-75
2021/12/14 08:26:31;;;;;;;28.57;25.43;;;;;;;;;;5037935;28;20235;-76
2021/12/14 08:29:03;;;;;;;31.40;25.90;;;;;;;;;;5036139;28;20291;-76
2021/12/14 08:31:33;;;;;;;29.83;24.53;;;;;;;;;;5039864;28;20679;-76
2021/12/14 08:34:03;;;;;;;28.97;23.67;;;;;;;;;;5038375;28;20207;-76
2021/12/14 08:36:35;;;;;;;28.87;25.07;;;;;;;;;;5038577;28;20211;-76
2021/12/14 08:39:06;;;;;;;28.57;24.37;;;;;;;;;;5038309;28;20235;-76
2021/12/14 08:41:33;;;;;;;28.60;24.13;;;;;;;;;;5039117;28;20959;-76
2021/12/14 08:44:09;;;;;;;29.50;22.77;;;;;;;;;;5039080;28;20217;-76
2021/12/14 08:46:36;;;;;;;27.83;24.60;;;;;;;;;;5038117;28;20232;-76
2021/12/14 08:49:06;;;;;;;28.10;24.43;;;;;;;;;;5039305;28;20228;-76
2021/12/14 08:51:37;;;;;;;27.57;23.67;;;;;;;;;;5037557;28;20214;-76
2021/12/14 08:54:08;;;;;;;29.90;24.37;;;;;;;;;;5040174;28;20245;-76
2021/12/14 08:56:40;;;;;;;30.00;24.50;;;;;;;;;;5038047;28;20396;-76
2021/12/14 08:59:09;;;;;;;29.77;23.80;;;;;;;;;;5039140;28;20692;-76
2021/12/14 09:01:38;;;;;;;30.03;24.43;;;;;;;;;;5037714;28;20223;-76
2021/12/14 09:04:08;;;;;;;33.13;25.53;;;;;;;;;;5038822;28;20626;-76
2021/12/14 09:06:38;;;;;;;34.53;26.30;;;;;;;;;;5038346;28;20224;-76
2021/12/14 09:09:09;;;;;;;31.73;24.53;;;;;;;;;;5037153;28;20212;-77
2021/12/14 09:11:38;;;;;;;39.90;28.17;;;;;;;;;;5036665;28;20223;-76
2021/12/14 09:14:09;;;;;;;35.17;27.23;;;;;;;;;;5037766;28;20213;-76
2021/12/14 09:16:38;;;;;;;37.27;27.27;;;;;;;;;;5038034;28;20231;-76
2021/12/14 09:19:09;;;;;;;36.00;26.83;;;;;;;;;;5038930;28;20780;-77
2021/12/14 09:21:39;;;;;;;39.13;29.40;;;;;;;;;;5036686;28;20576;-76
2021/12/14 09:24:10;;;;;;;33.67;23.33;;;;;;;;;;5038971;28;20237;-76
2021/12/14 09:26:38;;;;;;;36.77;26.67;;;;;;;;;;5037683;28;20989;-77
2021/12/14 09:29:10;;;;;;;38.70;27.27;;;;;;;;;;5039022;28;20621;-77
2021/12/14 09:31:40;;;;;;;35.57;25.63;;;;;;;;;;5038008;28;20222;-77
2021/12/14 09:34:09;;;;;;;42.07;28.20;;;;;;;;;;5037025;28;20214;-77
2021/12/14 09:36:37;;;;;;;47.57;31.60;;;;;;;;;;5039928;28;20274;-77
2021/12/14 09:39:08;;;;;;;47.50;31.87;;;;;;;;;;5037940;28;20253;-77
2021/12/14 09:41:36;;;;;;;41.80;28.27;;;;;;;;;;5040244;28;20342;-77
2021/12/14 09:44:06;;;;;;;46.37;31.23;;;;;;;;;;5038484;28;20215;-78
2021/12/14 09:46:33;;;;;;;46.37;32.10;;;;;;;;;;5036779;28;20304;-77
2021/12/14 09:49:05;;;;;;;49.20;32.33;;;;;;;;;;5040064;28;20812;-78
2021/12/14 09:51:34;;;;;;;50.93;32.97;;;;;;;;;;5037346;28;20215;-77
2021/12/14 09:54:04;;;;;;;47.60;30.67;;;;;;;;;;5038471;28;20210;-77
2021/12/14 09:56:35;;;;;;;53.83;34.93;;;;;;;;;;5039268;28;20232;-78
2021/12/14 09:59:03;;;;;;;58.53;36.73;;;;;;;;;;5037079;28;20206;-77
2021/12/14 10:01:33;;;;;;;61.53;38.93;;;;;;;;;;5039425;28;20715;-77
2021/12/14 10:04:11;;;;;;;63.33;40.43;;;;;;;;;;5037373;28;20207;-77
2021/12/14 10:06:38;;;;;;;63.83;38.90;;;;;;;;;;5037619;28;20238;-76
2021/12/14 10:09:08;;;;;;;56.03;34.57;;;;;;;;;;5039054;28;20205;-77
2021/12/14 10:11:47;;;;;;;68.30;42.57;;;;;;;;;;5035634;28;20246;-77
2021/12/14 10:14:15;;;;;;;74.70;45.10;;;;;;;;;;5038146;28;20260;-77
2021/12/14 10:16:42;;;;;;;80.07;48.73;;;;;;;;;;5037586;28;20219;-77
2021/12/14 10:19:14;;;;;;;74.50;46.77;;;;;;;;;;5038310;28;20215;-77
2021/12/14 10:21:43;;;;;;;93.87;52.07;;;;;;;;;;5038915;28;20212;-76
2021/12/14 10:24:10;;;;;;;74.17;43.50;;;;;;;;;;5036027;28;20226;-77
2021/12/14 10:26:41;;;;;;;86.57;49.20;;;;;;;;;;5038299;28;20318;-77
2021/12/14 10:29:07;;;;;;;76.63;45.77;;;;;;;;;;5038140;28;20211;-77
2021/12/14 10:31:39;;;;;;;80.63;48.90;;;;;;;;;;5037439;28;20228;-77
2021/12/14 10:34:10;;;;;;;83.70;46.80;;;;;;;;;;5038659;28;20203;-77
2021/12/14 10:36:42;;;;;;;60.90;37.83;;;;;;;;;;5036902;28;20223;-77
2021/12/14 10:39:25;;;;;;;75.30;42.87;;;;;;;;;;5037872;28;20482;-77
2021/12/14 10:44:43;;;;;;;75.03;42.07;;;;;;;;;;5037011;28;20275;-77
2021/12/14 10:47:12;;;;;;;70.17;40.67;;;;;;;;;;5038670;28;20813;-77
2021/12/14 10:49:39;;;;;;;72.97;42.83;;;;;;;;;;5037012;28;20270;-77
2021/12/14 10:52:14;;;;;;;74.33;41.13;;;;;;;;;;5037597;28;20992;-77
2021/12/14 10:54:43;;;;;;;68.03;40.10;;;;;;;;;;5038927;28;20234;-77
2021/12/14 10:57:12;;;;;;;71.30;40.70;;;;;;;;;;5035762;28;20274;-77
2021/12/14 10:59:43;;;;;;;68.93;38.47;;;;;;;;;;5041437;28;20889;-77
2021/12/14 11:02:11;;;;;;;71.13;40.83;;;;;;;;;;5040373;28;20278;-77
2021/12/14 11:04:41;;;;;;;67.73;39.60;;;;;;;;;;5040590;28;20214;-77
2021/12/14 11:07:12;;;;;;;72.43;41.50;;;;;;;;;;5041282;28;20236;-76
2021/12/14 11:09:42;;;;;;;72.73;36.70;;;;;;;;;;5040937;28;20231;-76
2021/12/14 11:12:17;;;;;;;64.23;36.60;;;;;;;;;;5042603;28;20269;-76
2021/12/14 11:14:44;;;;;;;67.00;38.33;;;;;;;;;;5040910;28;20466;-77
2021/12/14 11:20:00;;;;;;;68.30;38.00;;;;;;;;;;5039823;28;20236;-77
2021/12/14 11:22:30;;;;;;;67.93;38.00;;;;;;;;;;5040648;28;20304;-76
2021/12/14 11:25:00;;;;;;;74.70;38.10;;;;;;;;;;5041292;28;20233;-77
2021/12/14 11:27:31;;;;;;;68.70;36.50;;;;;;;;;;5039585;28;20228;-76
2021/12/14 11:30:17;;;;;;;68.63;38.63;;;;;;;;;;5042206;28;20627;-76
2021/12/14 11:32:44;;;;;;;66.60;37.47;;;;;;;;;;5039101;28;20332;-77
2021/12/14 11:35:21;;;;;;;60.87;36.60;;;;;;;;;;5038842;28;20207;-78
2021/12/14 11:37:50;;;;;;;56.50;33.37;;;;;;;;;;5042185;28;20706;-76
2021/12/14 11:40:20;;;;;;;60.30;35.00;;;;;;;;;;5043313;28;20251;-79
2021/12/14 11:42:47;;;;;;;65.47;36.17;;;;;;;;;;5040933;28;20338;-77
2021/12/14 11:45:17;;;;;;;65.70;36.97;;;;;;;;;;5041085;28;20209;-77
2021/12/14 11:47:49;;;;;;;69.20;36.50;;;;;;;;;;5039554;28;20764;-77
2021/12/14 11:50:23;;;;;;;71.57;38.80;;;;;;;;;;5040878;28;20248;-77
2021/12/14 11:52:56;;;;;;;73.27;37.60;;;;;;;;;;5039452;28;20239;-77
2021/12/14 11:55:36;;;;;;;69.63;39.23;;;;;;;;;;5040166;28;20620;-77
2021/12/14 11:58:19;;;;;;;75.37;38.90;;;;;;;;;;5040649;28;20264;-77
2021/12/14 12:00:49;;;;;;;74.60;39.80;;;;;;;;;;5040227;28;20266;-77
2021/12/14 12:03:22;;;;;;;63.20;36.83;;;;;;;;;;5040692;28;20287;-77
2021/12/14 12:05:59;;;;;;;68.23;36.83;;;;;;;;;;5041387;28;20605;-77
2021/12/14 12:11:12;;;;;;;67.90;38.17;;;;;;;;;;5039483;28;20342;-77
2021/12/14 12:13:40;;;;;;;65.00;37.53;;;;;;;;;;5040679;28;20213;-77
2021/12/14 12:16:12;;;;;;;65.60;36.77;;;;;;;;;;5039629;28;20232;-77
2021/12/14 12:18:39;;;;;;;65.03;36.07;;;;;;;;;;5040617;28;20534;-77
2021/12/14 12:21:06;;;;;;;66.97;36.97;;;;;;;;;;5037785;28;20212;-77
2021/12/14 12:23:35;;;;;;;64.30;35.80;;;;;;;;;;5040954;28;20743;-77
2021/12/14 12:26:09;;;;;;;66.77;39.27;;;;;;;;;;5039007;28;20638;-77
2021/12/14 12:28:39;;;;;;;60.23;35.47;;;;;;;;;;5040101;28;20269;-80
2021/12/14 12:31:12;;;;;;;65.30;36.10;;;;;;;;;;5043979;28;20235;-78
2021/12/14 12:33:41;;;;;;;68.77;38.33;;;;;;;;;;5045419;28;20622;-79
2021/12/14 12:36:10;;;;;;;63.13;35.77;;;;;;;;;;5043916;28;20322;-79
2021/12/14 12:38:47;;;;;;;61.23;35.00;;;;;;;;;;5044999;28;20294;-79
2021/12/14 12:41:24;;;;;;;56.77;34.30;;;;;;;;;;5043218;28;20226;-79
2021/12/14 12:43:54;;;;;;;60.60;34.80;;;;;;;;;;5047132;28;20276;-79
2021/12/14 12:46:23;;;;;;;59.87;35.37;;;;;;;;;;5043793;28;20232;-79
2021/12/14 12:48:54;;;;;;;58.97;33.90;;;;;;;;;;5043475;28;20327;-77
2021/12/14 12:51:42;;;;;;;56.33;33.50;;;;;;;;;;5045582;28;20208;-79
2021/12/14 12:54:19;;;;;;;58.50;34.43;;;;;;;;;;5045718;28;20285;-79
2021/12/14 12:56:51;;;;;;;53.87;33.13;;;;;;;;;;5044789;28;20229;-79
2021/12/14 12:59:38;;;;;;;51.83;33.97;;;;;;;;;;5045376;28;20750;-78
2021/12/14 13:02:20;;;;;;;55.23;33.10;;;;;;;;;;5040895;28;20227;-78
2021/12/14 13:04:50;;;;;;;57.53;34.27;;;;;;;;;;5044030;28;20571;-78
2021/12/14 13:07:17;;;;;;;49.87;32.47;;;;;;;;;;5045092;28;20645;-78
2021/12/14 13:10:14;;;;;;;57.47;34.50;;;;;;;;;;5043081;28;20223;-79
2021/12/14 13:12:46;;;;;;;50.60;31.50;;;;;;;;;;5041925;28;20590;-78
2021/12/14 13:15:39;;;;;;;56.10;32.60;;;;;;;;;;5045036;28;20956;-78
2021/12/14 13:18:34;;;;;;;46.70;29.30;;;;;;;;;;5040316;28;20221;-78
2021/12/14 13:21:07;;;;;;;49.60;31.53;;;;;;;;;;5043137;28;20214;-78
2021/12/14 13:23:58;;;;;;;49.20;31.17;;;;;;;;;;5044914;28;20697;-78
2021/12/14 13:26:34;;;;;;;47.17;31.73;;;;;;;;;;5041870;28;20224;-78
2021/12/14 13:29:07;;;;;;;45.60;28.80;;;;;;;;;;5045564;28;20219;-78
2021/12/14 13:31:37;;;;;;;43.57;30.70;;;;;;;;;;5044747;28;20221;-78
2021/12/14 13:34:08;;;;;;;44.73;30.77;;;;;;;;;;5044293;28;20206;-78
2021/12/14 13:36:35;;;;;;;45.90;29.97;;;;;;;;;;5045577;28;20217;-79
2021/12/14 13:39:04;;;;;;;50.07;31.07;;;;;;;;;;5042880;28;20548;-79
2021/12/14 13:41:56;;;;;;;54.77;35.73;;;;;;;;;;5043730;28;20286;-78
2021/12/14 13:44:23;;;;;;;47.27;30.13;;;;;;;;;;5044641;28;20684;-79
2021/12/14 13:46:50;;;;;;;44.90;29.63;;;;;;;;;;5039922;28;20254;-77
2021/12/14 13:49:16;;;;;;;49.10;31.43;;;;;;;;;;5041665;28;20240;-79
2021/12/14 13:51:42;;;;;;;47.30;30.53;;;;;;;;;;5038110;28;20369;-78
2021/12/14 13:54:09;;;;;;;51.83;31.73;;;;;;;;;;5038682;28;20349;-78
2021/12/14 13:56:38;;;;;;;45.03;29.60;;;;;;;;;;5038606;28;20663;-77
2021/12/14 13:59:07;;;;;;;59.13;32.27;;;;;;;;;;5038001;28;20291;-77
2021/12/14 14:01:41;;;;;;;52.63;30.87;;;;;;;;;;5038240;28;20244;-75
2021/12/14 14:04:10;;;;;;;50.63;31.90;;;;;;;;;;5036812;28;20218;-75
2021/12/14 14:06:36;;;;;;;57.03;32.70;;;;;;;;;;5040653;28;20219;-78
2021/12/14 14:09:07;;;;;;;46.50;30.83;;;;;;;;;;5040382;28;20231;-78
2021/12/14 14:11:36;;;;;;;48.43;30.10;;;;;;;;;;5038536;28;20258;-77
2021/12/14 14:14:08;;;;;;;50.47;30.60;;;;;;;;;;5041330;28;20267;-78
2021/12/14 14:16:42;;;;;;;50.27;30.33;;;;;;;;;;5037068;28;20233;-77
2021/12/14 14:19:11;;;;;;;49.17;30.50;;;;;;;;;;5038232;28;20216;-77
2021/12/14 14:21:38;;;;;;;54.00;31.97;;;;;;;;;;5035495;28;20598;-77
2021/12/14 14:24:17;;;;;;;49.07;29.73;;;;;;;;;;5035489;28;20217;-77
2021/12/14 14:26:44;;;;;;;45.87;29.17;;;;;;;;;;5038027;28;20235;-76
2021/12/14 14:29:14;;;;;;;48.00;28.23;;;;;;;;;;5035996;28;20231;-76
2021/12/14 14:31:46;;;;;;;52.97;30.93;;;;;;;;;;5037453;28;20273;-77
2021/12/14 14:34:21;;;;;;;44.60;29.93;;;;;;;;;;5043437;28;20880;-76
2021/12/14 14:36:57;;;;;;;49.73;30.60;;;;;;;;;;5041714;28;20215;-77
2021/12/14 14:39:24;;;;;;;54.50;31.50;;;;;;;;;;5042462;28;20245;-76
2021/12/14 14:41:52;;;;;;;50.70;30.23;;;;;;;;;;5043735;28;20214;-76
2021/12/14 14:44:29;;;;;;;45.67;29.90;;;;;;;;;;5042149;28;20274;-77
2021/12/14 14:47:02;;;;;;;52.47;31.40;;;;;;;;;;5042376;28;20235;-77
2021/12/14 14:49:51;;;;;;;48.93;29.17;;;;;;;;;;5043096;28;20768;-76
2021/12/14 14:52:21;;;;;;;46.53;29.73;;;;;;;;;;5043891;28;20237;-77
2021/12/14 14:54:50;;;;;;;48.07;30.57;;;;;;;;;;5041899;28;20236;-77
2021/12/14 14:57:41;;;;;;;48.53;29.53;;;;;;;;;;5041649;28;20709;-76
2021/12/14 15:00:49;;;;;;;45.67;29.30;;;;;;;;;;5037186;28;20210;-77
2021/12/14 15:03:20;;;;;;;50.17;30.30;;;;;;;;;;5043757;28;20213;-77